sensor_id;sensor_type;location;lat;lon;timestamp;P1;durP1;ratioP1;P2;durP2;ratioP2
6017;SDS011;3037;51.068;13.780;2022-08-01T00:02:09;3.13;;;2.93;;
6017;SDS011;3037;51.068;13.780;2022-08-01T00:04:35;2.07;;;2.07;;
6017;SDS011;3037;51.068;13.780;2022-08-01T00:07:00;9.30;;;3.43;;
6017;SDS011;3037;51.068;13.780;2022-08-01T00:09:26;3.00;;;2.70;;
6017;SDS011;3037;51.068;13.780;2022-08-01T00:11:51;3.60;;;3.40;;
6017;SDS011;3037;51.068;13.780;2022-08-01T00:14:17;2.97;;;2.70;;
6017;SDS011;3037;51.068;13.780;2022-08-01T00:16:43;11.60;;;3.50;;
6017;SDS011;3037;51.068;13.780;2022-08-01T00:19:08;4.33;;;3.20;;
6017;SDS011;3037;51.068;13.780;2022-08-01T00:21:34;3.90;;;3.60;;
6017;SDS011;3037;51.068;13.780;2022-08-01T00:23:59;3.63;;;3.50;;
6017;SDS011;3037;51.068;13.780;2022-08-01T00:26:25;8.70;;;3.10;;
6017;SDS011;3037;51.068;13.780;2022-08-01T00:28:50;14.60;;;3.10;;
6017;SDS011;3037;51.068;13.780;2022-08-01T00:31:16;2.83;;;2.63;;
6017;SDS011;3037;51.068;13.780;2022-08-01T00:33:41;4.33;;;3.23;;
6017;SDS011;3037;51.068;13.780;2022-08-01T00:36:07;3.37;;;3.17;;
6017;SDS011;3037;51.068;13.780;2022-08-01T00:38:32;7.63;;;2.83;;
6017;SDS011;3037;51.068;13.780;2022-08-01T00:40:58;7.80;;;4.20;;
6017;SDS011;3037;51.068;13.780;2022-08-01T00:43:24;3.53;;;3.23;;
6017;SDS011;3037;51.068;13.780;2022-08-01T00:45:49;3.93;;;3.63;;
6017;SDS011;3037;51.068;13.780;2022-08-01T00:48:15;6.50;;;3.33;;
6017;SDS011;3037;51.068;13.780;2022-08-01T00:50:40;8.73;;;3.00;;
6017;SDS011;3037;51.068;13.780;2022-08-01T00:53:06;4.60;;;3.20;;
6017;SDS011;3037;51.068;13.780;2022-08-01T00:55:32;3.67;;;3.37;;
6017;SDS011;3037;51.068;13.780;2022-08-01T00:57:58;3.60;;;3.30;;
6017;SDS011;3037;51.068;13.780;2022-08-01T01:00:24;4.90;;;3.43;;
6017;SDS011;3037;51.068;13.780;2022-08-01T01:02:50;5.93;;;3.30;;
6017;SDS011;3037;51.068;13.780;2022-08-01T01:05:16;3.40;;;2.83;;
6017;SDS011;3037;51.068;13.780;2022-08-01T01:07:50;3.27;;;3.10;;
6017;SDS011;3037;51.068;13.780;2022-08-01T01:13:18;3.10;;;3.00;;
6017;SDS011;3037;51.068;13.780;2022-08-01T01:16:09;3.23;;;3.00;;
6017;SDS011;3037;51.068;13.780;2022-08-01T01:18:48;3.93;;;3.73;;
6017;SDS011;3037;51.068;13.780;2022-08-01T01:23:50;3.80;;;3.50;;
6017;SDS011;3037;51.068;13.780;2022-08-01T01:31:40;3.17;;;2.97;;
6017;SDS011;3037;51.068;13.780;2022-08-01T01:34:09;6.13;;;3.10;;
6017;SDS011;3037;51.068;13.780;2022-08-01T01:36:37;4.07;;;3.77;;
6017;SDS011;3037;51.068;13.780;2022-08-01T01:39:04;4.27;;;3.30;;
6017;SDS011;3037;51.068;13.780;2022-08-01T01:41:29;3.20;;;3.10;;
6017;SDS011;3037;51.068;13.780;2022-08-01T01:43:55;8.73;;;3.70;;
6017;SDS011;3037;51.068;13.780;2022-08-01T01:46:23;3.63;;;3.37;;
6017;SDS011;3037;51.068;13.780;2022-08-01T01:48:52;4.00;;;3.70;;
6017;SDS011;3037;51.068;13.780;2022-08-01T01:51:18;6.37;;;5.77;;
6017;SDS011;3037;51.068;13.780;2022-08-01T01:53:47;6.80;;;3.70;;
6017;SDS011;3037;51.068;13.780;2022-08-01T01:56:14;4.00;;;3.70;;
6017;SDS011;3037;51.068;13.780;2022-08-01T01:58:43;4.90;;;3.60;;
6017;SDS011;3037;51.068;13.780;2022-08-01T02:01:10;3.47;;;3.27;;
6017;SDS011;3037;51.068;13.780;2022-08-01T02:03:37;3.40;;;3.10;;
6017;SDS011;3037;51.068;13.780;2022-08-01T02:06:04;3.93;;;3.80;;
6017;SDS011;3037;51.068;13.780;2022-08-01T02:08:31;3.80;;;3.60;;
6017;SDS011;3037;51.068;13.780;2022-08-01T02:10:58;3.33;;;3.23;;
6017;SDS011;3037;51.068;13.780;2022-08-01T02:13:46;4.13;;;3.80;;
6017;SDS011;3037;51.068;13.780;2022-08-01T02:16:17;12.53;;;3.87;;
6017;SDS011;3037;51.068;13.780;2022-08-01T02:18:43;3.40;;;3.17;;
6017;SDS011;3037;51.068;13.780;2022-08-01T02:21:09;4.03;;;3.30;;
6017;SDS011;3037;51.068;13.780;2022-08-01T02:23:39;3.80;;;3.30;;
6017;SDS011;3037;51.068;13.780;2022-08-01T02:26:07;3.70;;;3.40;;
6017;SDS011;3037;51.068;13.780;2022-08-01T02:28:41;4.00;;;3.67;;
6017;SDS011;3037;51.068;13.780;2022-08-01T02:31:12;3.30;;;3.10;;
6017;SDS011;3037;51.068;13.780;2022-08-01T02:33:43;4.00;;;3.80;;
6017;SDS011;3037;51.068;13.780;2022-08-01T02:36:10;3.73;;;3.43;;
6017;SDS011;3037;51.068;13.780;2022-08-01T02:38:39;3.83;;;3.37;;
6017;SDS011;3037;51.068;13.780;2022-08-01T02:41:08;3.97;;;3.40;;
6017;SDS011;3037;51.068;13.780;2022-08-01T02:43:37;5.23;;;3.00;;
6017;SDS011;3037;51.068;13.780;2022-08-01T02:46:06;4.73;;;4.43;;
6017;SDS011;3037;51.068;13.780;2022-08-01T02:48:36;2.73;;;2.63;;
6017;SDS011;3037;51.068;13.780;2022-08-01T02:51:05;4.63;;;2.90;;
6017;SDS011;3037;51.068;13.780;2022-08-01T02:53:33;3.50;;;3.30;;
6017;SDS011;3037;51.068;13.780;2022-08-01T02:56:02;4.70;;;3.13;;
6017;SDS011;3037;51.068;13.780;2022-08-01T02:58:30;3.30;;;3.20;;
6017;SDS011;3037;51.068;13.780;2022-08-01T03:00:58;4.80;;;3.60;;
6017;SDS011;3037;51.068;13.780;2022-08-01T03:03:24;3.47;;;3.17;;
6017;SDS011;3037;51.068;13.780;2022-08-01T03:05:50;3.40;;;3.20;;
6017;SDS011;3037;51.068;13.780;2022-08-01T03:08:16;3.60;;;3.30;;
6017;SDS011;3037;51.068;13.780;2022-08-01T03:10:44;3.97;;;3.77;;
6017;SDS011;3037;51.068;13.780;2022-08-01T03:13:11;3.47;;;3.20;;
6017;SDS011;3037;51.068;13.780;2022-08-01T03:15:41;3.47;;;3.27;;
6017;SDS011;3037;51.068;13.780;2022-08-01T03:18:08;3.30;;;3.20;;
6017;SDS011;3037;51.068;13.780;2022-08-01T03:20:36;6.50;;;4.10;;
6017;SDS011;3037;51.068;13.780;2022-08-01T03:23:03;6.27;;;3.80;;
6017;SDS011;3037;51.068;13.780;2022-08-01T03:25:31;4.37;;;3.40;;
6017;SDS011;3037;51.068;13.780;2022-08-01T03:27:59;4.07;;;3.80;;
6017;SDS011;3037;51.068;13.780;2022-08-01T03:30:26;4.23;;;3.97;;
6017;SDS011;3037;51.068;13.780;2022-08-01T03:32:54;3.77;;;3.47;;
6017;SDS011;3037;51.068;13.780;2022-08-01T03:35:20;9.53;;;3.90;;
6017;SDS011;3037;51.068;13.780;2022-08-01T03:37:49;8.40;;;3.30;;
6017;SDS011;3037;51.068;13.780;2022-08-01T03:40:20;3.50;;;3.20;;
6017;SDS011;3037;51.068;13.780;2022-08-01T03:43:02;3.90;;;3.60;;
6017;SDS011;3037;51.068;13.780;2022-08-01T03:45:34;3.67;;;3.30;;
6017;SDS011;3037;51.068;13.780;2022-08-01T03:48:03;3.60;;;3.40;;
6017;SDS011;3037;51.068;13.780;2022-08-01T03:50:33;5.40;;;4.20;;
6017;SDS011;3037;51.068;13.780;2022-08-01T03:53:02;5.03;;;4.03;;
6017;SDS011;3037;51.068;13.780;2022-08-01T03:55:29;3.70;;;3.50;;
6017;SDS011;3037;51.068;13.780;2022-08-01T03:57:56;5.90;;;4.00;;
6017;SDS011;3037;51.068;13.780;2022-08-01T04:00:23;4.50;;;4.20;;
6017;SDS011;3037;51.068;13.780;2022-08-01T04:02:49;4.13;;;3.83;;
6017;SDS011;3037;51.068;13.780;2022-08-01T04:05:16;5.33;;;3.90;;
6017;SDS011;3037;51.068;13.780;2022-08-01T04:07:49;4.33;;;3.90;;
6017;SDS011;3037;51.068;13.780;2022-08-01T04:10:20;5.33;;;3.43;;
6017;SDS011;3037;51.068;13.780;2022-08-01T04:12:49;3.87;;;3.67;;
6017;SDS011;3037;51.068;13.780;2022-08-01T04:15:15;9.93;;;4.17;;
6017;SDS011;3037;51.068;13.780;2022-08-01T04:17:41;7.27;;;4.20;;
6017;SDS011;3037;51.068;13.780;2022-08-01T04:20:06;3.47;;;3.27;;
6017;SDS011;3037;51.068;13.780;2022-08-01T04:22:33;3.57;;;3.37;;
6017;SDS011;3037;51.068;13.780;2022-08-01T04:24:58;4.63;;;4.20;;
6017;SDS011;3037;51.068;13.780;2022-08-01T04:27:28;6.10;;;3.67;;
6017;SDS011;3037;51.068;13.780;2022-08-01T04:29:56;6.93;;;3.90;;
6017;SDS011;3037;51.068;13.780;2022-08-01T04:32:23;3.90;;;3.70;;
6017;SDS011;3037;51.068;13.780;2022-08-01T04:34:52;3.87;;;3.63;;
6017;SDS011;3037;51.068;13.780;2022-08-01T04:37:22;4.10;;;3.77;;
6017;SDS011;3037;51.068;13.780;2022-08-01T04:39:50;3.93;;;3.63;;
6017;SDS011;3037;51.068;13.780;2022-08-01T04:42:17;4.30;;;3.40;;
6017;SDS011;3037;51.068;13.780;2022-08-01T04:44:44;3.67;;;3.37;;
6017;SDS011;3037;51.068;13.780;2022-08-01T04:47:09;11.03;;;4.07;;
6017;SDS011;3037;51.068;13.780;2022-08-01T04:49:36;3.87;;;3.57;;
6017;SDS011;3037;51.068;13.780;2022-08-01T04:52:02;4.13;;;3.83;;
6017;SDS011;3037;51.068;13.780;2022-08-01T04:54:33;4.27;;;3.80;;
6017;SDS011;3037;51.068;13.780;2022-08-01T04:57:02;6.53;;;3.83;;
6017;SDS011;3037;51.068;13.780;2022-08-01T04:59:29;4.60;;;3.60;;
6017;SDS011;3037;51.068;13.780;2022-08-01T05:04:41;3.40;;;3.10;;
6017;SDS011;3037;51.068;13.780;2022-08-01T05:07:08;2.93;;;2.73;;
6017;SDS011;3037;51.068;13.780;2022-08-01T05:09:35;3.17;;;2.83;;
6017;SDS011;3037;51.068;13.780;2022-08-01T05:12:01;5.93;;;3.43;;
6017;SDS011;3037;51.068;13.780;2022-08-01T05:14:29;5.33;;;3.67;;
6017;SDS011;3037;51.068;13.780;2022-08-01T05:16:57;5.60;;;3.53;;
6017;SDS011;3037;51.068;13.780;2022-08-01T05:19:28;4.03;;;3.50;;
6017;SDS011;3037;51.068;13.780;2022-08-01T05:22:01;3.33;;;3.00;;
6017;SDS011;3037;51.068;13.780;2022-08-01T05:24:29;2.93;;;2.83;;
6017;SDS011;3037;51.068;13.780;2022-08-01T05:26:55;4.13;;;3.73;;
6017;SDS011;3037;51.068;13.780;2022-08-01T05:29:22;7.03;;;3.13;;
6017;SDS011;3037;51.068;13.780;2022-08-01T05:31:48;3.40;;;3.20;;
6017;SDS011;3037;51.068;13.780;2022-08-01T05:34:13;5.03;;;3.73;;
6017;SDS011;3037;51.068;13.780;2022-08-01T05:36:39;5.63;;;2.90;;
6017;SDS011;3037;51.068;13.780;2022-08-01T05:39:05;2.97;;;2.77;;
6017;SDS011;3037;51.068;13.780;2022-08-01T05:41:31;5.90;;;3.10;;
6017;SDS011;3037;51.068;13.780;2022-08-01T05:43:56;4.23;;;2.83;;
6017;SDS011;3037;51.068;13.780;2022-08-01T05:46:22;11.33;;;2.40;;
6017;SDS011;3037;51.068;13.780;2022-08-01T05:48:47;3.90;;;2.23;;
6017;SDS011;3037;51.068;13.780;2022-08-01T05:51:13;2.77;;;2.67;;
6017;SDS011;3037;51.068;13.780;2022-08-01T05:53:38;3.33;;;3.03;;
6017;SDS011;3037;51.068;13.780;2022-08-01T05:56:04;3.23;;;2.77;;
6017;SDS011;3037;51.068;13.780;2022-08-01T05:58:30;2.60;;;2.50;;
6017;SDS011;3037;51.068;13.780;2022-08-01T06:00:56;2.37;;;2.27;;
6017;SDS011;3037;51.068;13.780;2022-08-01T06:03:22;4.87;;;2.67;;
6017;SDS011;3037;51.068;13.780;2022-08-01T06:05:48;7.17;;;2.80;;
6017;SDS011;3037;51.068;13.780;2022-08-01T06:08:13;3.63;;;3.27;;
6017;SDS011;3037;51.068;13.780;2022-08-01T06:10:39;2.83;;;2.63;;
6017;SDS011;3037;51.068;13.780;2022-08-01T06:13:04;3.20;;;2.87;;
6017;SDS011;3037;51.068;13.780;2022-08-01T06:15:30;2.97;;;2.40;;
6017;SDS011;3037;51.068;13.780;2022-08-01T06:17:56;5.33;;;2.70;;
6017;SDS011;3037;51.068;13.780;2022-08-01T06:20:22;2.70;;;2.60;;
6017;SDS011;3037;51.068;13.780;2022-08-01T06:22:47;2.60;;;2.40;;
6017;SDS011;3037;51.068;13.780;2022-08-01T06:25:13;6.93;;;2.80;;
6017;SDS011;3037;51.068;13.780;2022-08-01T06:27:38;3.13;;;2.87;;
6017;SDS011;3037;51.068;13.780;2022-08-01T06:30:04;4.87;;;2.90;;
6017;SDS011;3037;51.068;13.780;2022-08-01T06:32:32;5.63;;;2.50;;
6017;SDS011;3037;51.068;13.780;2022-08-01T06:34:58;3.30;;;2.63;;
6017;SDS011;3037;51.068;13.780;2022-08-01T06:37:23;3.23;;;3.03;;
6017;SDS011;3037;51.068;13.780;2022-08-01T06:39:53;2.30;;;2.13;;
6017;SDS011;3037;51.068;13.780;2022-08-01T06:42:18;2.40;;;2.30;;
6017;SDS011;3037;51.068;13.780;2022-08-01T06:44:44;9.77;;;2.77;;
6017;SDS011;3037;51.068;13.780;2022-08-01T06:47:10;2.53;;;2.33;;
6017;SDS011;3037;51.068;13.780;2022-08-01T06:49:35;3.40;;;2.47;;
6017;SDS011;3037;51.068;13.780;2022-08-01T06:52:01;3.97;;;2.50;;
6017;SDS011;3037;51.068;13.780;2022-08-01T06:54:27;3.57;;;2.13;;
6017;SDS011;3037;51.068;13.780;2022-08-01T06:56:53;3.43;;;2.07;;
6017;SDS011;3037;51.068;13.780;2022-08-01T06:59:18;3.47;;;3.20;;
6017;SDS011;3037;51.068;13.780;2022-08-01T07:01:44;10.70;;;2.87;;
6017;SDS011;3037;51.068;13.780;2022-08-01T07:04:10;3.90;;;3.20;;
6017;SDS011;3037;51.068;13.780;2022-08-01T07:06:35;2.60;;;2.40;;
6017;SDS011;3037;51.068;13.780;2022-08-01T07:09:00;5.23;;;2.67;;
6017;SDS011;3037;51.068;13.780;2022-08-01T07:11:27;6.53;;;3.47;;
6017;SDS011;3037;51.068;13.780;2022-08-01T07:13:52;4.07;;;3.57;;
6017;SDS011;3037;51.068;13.780;2022-08-01T07:16:18;5.30;;;4.20;;
6017;SDS011;3037;51.068;13.780;2022-08-01T07:18:43;3.77;;;3.47;;
6017;SDS011;3037;51.068;13.780;2022-08-01T07:21:09;4.90;;;4.50;;
6017;SDS011;3037;51.068;13.780;2022-08-01T07:23:35;3.50;;;3.20;;
6017;SDS011;3037;51.068;13.780;2022-08-01T07:26:02;3.60;;;3.50;;
6017;SDS011;3037;51.068;13.780;2022-08-01T07:28:28;3.50;;;3.40;;
6017;SDS011;3037;51.068;13.780;2022-08-01T07:30:54;3.33;;;3.13;;
6017;SDS011;3037;51.068;13.780;2022-08-01T07:33:20;4.00;;;3.70;;
6017;SDS011;3037;51.068;13.780;2022-08-01T07:35:47;4.53;;;4.33;;
6017;SDS011;3037;51.068;13.780;2022-08-01T07:38:12;4.33;;;4.10;;
6017;SDS011;3037;51.068;13.780;2022-08-01T07:40:40;4.97;;;4.60;;
6017;SDS011;3037;51.068;13.780;2022-08-01T07:43:05;4.53;;;4.10;;
6017;SDS011;3037;51.068;13.780;2022-08-01T07:45:31;3.80;;;3.60;;
6017;SDS011;3037;51.068;13.780;2022-08-01T07:47:56;4.50;;;4.07;;
6017;SDS011;3037;51.068;13.780;2022-08-01T07:50:30;4.70;;;4.30;;
6017;SDS011;3037;51.068;13.780;2022-08-01T07:52:56;10.00;;;4.70;;
6017;SDS011;3037;51.068;13.780;2022-08-01T07:55:22;4.50;;;4.10;;
6017;SDS011;3037;51.068;13.780;2022-08-01T07:57:47;4.53;;;4.10;;
6017;SDS011;3037;51.068;13.780;2022-08-01T08:00:13;8.50;;;4.20;;
6017;SDS011;3037;51.068;13.780;2022-08-01T08:02:39;4.03;;;3.73;;
6017;SDS011;3037;51.068;13.780;2022-08-01T08:05:05;4.07;;;3.77;;
6017;SDS011;3037;51.068;13.780;2022-08-01T08:07:32;4.70;;;4.07;;
6017;SDS011;3037;51.068;13.780;2022-08-01T08:09:57;4.90;;;3.70;;
6017;SDS011;3037;51.068;13.780;2022-08-01T08:12:23;4.13;;;3.90;;
6017;SDS011;3037;51.068;13.780;2022-08-01T08:14:49;3.97;;;3.80;;
6017;SDS011;3037;51.068;13.780;2022-08-01T08:17:14;3.60;;;3.37;;
6017;SDS011;3037;51.068;13.780;2022-08-01T08:19:40;3.30;;;3.10;;
6017;SDS011;3037;51.068;13.780;2022-08-01T08:22:06;2.80;;;2.70;;
6017;SDS011;3037;51.068;13.780;2022-08-01T08:24:33;4.83;;;3.60;;
6017;SDS011;3037;51.068;13.780;2022-08-01T08:27:00;12.03;;;2.80;;
6017;SDS011;3037;51.068;13.780;2022-08-01T08:29:26;3.20;;;3.10;;
6017;SDS011;3037;51.068;13.780;2022-08-01T08:31:54;2.57;;;2.37;;
6017;SDS011;3037;51.068;13.780;2022-08-01T08:34:21;3.37;;;3.17;;
6017;SDS011;3037;51.068;13.780;2022-08-01T08:36:47;3.57;;;2.67;;
6017;SDS011;3037;51.068;13.780;2022-08-01T08:39:14;5.93;;;2.87;;
6017;SDS011;3037;51.068;13.780;2022-08-01T08:41:40;4.23;;;2.77;;
6017;SDS011;3037;51.068;13.780;2022-08-01T08:44:06;6.50;;;2.50;;
6017;SDS011;3037;51.068;13.780;2022-08-01T08:46:33;2.50;;;2.40;;
6017;SDS011;3037;51.068;13.780;2022-08-01T08:49:04;7.00;;;2.50;;
6017;SDS011;3037;51.068;13.780;2022-08-01T08:51:31;4.17;;;2.30;;
6017;SDS011;3037;51.068;13.780;2022-08-01T08:54:01;2.60;;;2.40;;
6017;SDS011;3037;51.068;13.780;2022-08-01T08:56:28;2.37;;;2.27;;
6017;SDS011;3037;51.068;13.780;2022-08-01T08:58:59;3.23;;;2.07;;
6017;SDS011;3037;51.068;13.780;2022-08-01T09:01:25;2.40;;;1.80;;
6017;SDS011;3037;51.068;13.780;2022-08-01T09:03:51;2.07;;;1.97;;
6017;SDS011;3037;51.068;13.780;2022-08-01T09:06:17;3.70;;;1.77;;
6017;SDS011;3037;51.068;13.780;2022-08-01T09:08:43;3.70;;;2.20;;
6017;SDS011;3037;51.068;13.780;2022-08-01T09:11:08;1.80;;;1.73;;
6017;SDS011;3037;51.068;13.780;2022-08-01T09:13:34;1.93;;;1.83;;
6017;SDS011;3037;51.068;13.780;2022-08-01T09:16:00;2.70;;;1.70;;
6017;SDS011;3037;51.068;13.780;2022-08-01T09:18:29;2.40;;;2.00;;
6017;SDS011;3037;51.068;13.780;2022-08-01T09:21:07;1.80;;;1.70;;
6017;SDS011;3037;51.068;13.780;2022-08-01T09:23:37;3.10;;;2.60;;
6017;SDS011;3037;51.068;13.780;2022-08-01T09:26:08;3.40;;;1.70;;
6017;SDS011;3037;51.068;13.780;2022-08-01T09:28:34;1.70;;;1.60;;
6017;SDS011;3037;51.068;13.780;2022-08-01T09:31:05;4.87;;;1.87;;
6017;SDS011;3037;51.068;13.780;2022-08-01T09:36:23;3.97;;;1.90;;
6017;SDS011;3037;51.068;13.780;2022-08-01T09:38:52;2.17;;;1.50;;
6017;SDS011;3037;51.068;13.780;2022-08-01T09:41:29;2.90;;;2.20;;
6017;SDS011;3037;51.068;13.780;2022-08-01T09:43:58;1.60;;;1.60;;
6017;SDS011;3037;51.068;13.780;2022-08-01T09:46:24;6.33;;;2.27;;
6017;SDS011;3037;51.068;13.780;2022-08-01T09:48:57;1.73;;;1.73;;
6017;SDS011;3037;51.068;13.780;2022-08-01T09:51:31;2.60;;;1.70;;
6017;SDS011;3037;51.068;13.780;2022-08-01T09:53:59;2.73;;;2.10;;
6017;SDS011;3037;51.068;13.780;2022-08-01T09:56:25;3.00;;;1.77;;
6017;SDS011;3037;51.068;13.780;2022-08-01T09:58:51;1.67;;;1.67;;
6017;SDS011;3037;51.068;13.780;2022-08-01T10:01:20;1.80;;;1.70;;
6017;SDS011;3037;51.068;13.780;2022-08-01T10:03:46;2.97;;;1.37;;
6017;SDS011;3037;51.068;13.780;2022-08-01T10:06:28;1.23;;;1.23;;
6017;SDS011;3037;51.068;13.780;2022-08-01T10:08:53;1.60;;;1.50;;
6017;SDS011;3037;51.068;13.780;2022-08-01T10:11:19;1.30;;;1.20;;
6017;SDS011;3037;51.068;13.780;2022-08-01T10:13:46;3.00;;;1.57;;
6017;SDS011;3037;51.068;13.780;2022-08-01T10:16:13;2.50;;;1.23;;
6017;SDS011;3037;51.068;13.780;2022-08-01T10:18:39;1.33;;;1.23;;
6017;SDS011;3037;51.068;13.780;2022-08-01T10:21:06;1.33;;;1.33;;
6017;SDS011;3037;51.068;13.780;2022-08-01T10:23:35;1.27;;;1.20;;
6017;SDS011;3037;51.068;13.780;2022-08-01T10:26:03;1.40;;;1.30;;
6017;SDS011;3037;51.068;13.780;2022-08-01T10:28:30;1.20;;;1.20;;
6017;SDS011;3037;51.068;13.780;2022-08-01T10:30:59;1.07;;;1.03;;
6017;SDS011;3037;51.068;13.780;2022-08-01T10:33:26;1.00;;;1.00;;
6017;SDS011;3037;51.068;13.780;2022-08-01T10:35:53;1.30;;;1.30;;
6017;SDS011;3037;51.068;13.780;2022-08-01T10:38:19;1.10;;;1.10;;
6017;SDS011;3037;51.068;13.780;2022-08-01T10:40:45;3.80;;;1.30;;
6017;SDS011;3037;51.068;13.780;2022-08-01T10:43:10;1.13;;;1.13;;
6017;SDS011;3037;51.068;13.780;2022-08-01T10:45:37;1.30;;;1.20;;
6017;SDS011;3037;51.068;13.780;2022-08-01T10:48:04;1.13;;;1.13;;
6017;SDS011;3037;51.068;13.780;2022-08-01T10:50:40;0.97;;;0.97;;
6017;SDS011;3037;51.068;13.780;2022-08-01T10:53:10;3.90;;;1.10;;
6017;SDS011;3037;51.068;13.780;2022-08-01T10:55:47;1.20;;;1.10;;
6017;SDS011;3037;51.068;13.780;2022-08-01T10:58:21;3.80;;;0.90;;
6017;SDS011;3037;51.068;13.780;2022-08-01T11:03:57;6.13;;;0.80;;
6017;SDS011;3037;51.068;13.780;2022-08-01T11:08:58;2.73;;;0.90;;
6017;SDS011;3037;51.068;13.780;2022-08-01T11:11:30;1.00;;;1.00;;
6017;SDS011;3037;51.068;13.780;2022-08-01T11:16:32;0.80;;;0.80;;
6017;SDS011;3037;51.068;13.780;2022-08-01T11:18:59;1.20;;;1.20;;
6017;SDS011;3037;51.068;13.780;2022-08-01T11:27:18;0.97;;;0.97;;
6017;SDS011;3037;51.068;13.780;2022-08-01T11:32:32;1.10;;;1.10;;
6017;SDS011;3037;51.068;13.780;2022-08-01T11:34:58;1.60;;;1.50;;
6017;SDS011;3037;51.068;13.780;2022-08-01T11:37:25;0.70;;;0.70;;
6017;SDS011;3037;51.068;13.780;2022-08-01T11:40:13;2.20;;;1.10;;
6017;SDS011;3037;51.068;13.780;2022-08-01T11:42:40;1.63;;;1.13;;
6017;SDS011;3037;51.068;13.780;2022-08-01T11:45:06;5.67;;;1.30;;
6017;SDS011;3037;51.068;13.780;2022-08-01T11:47:44;1.23;;;1.00;;
6017;SDS011;3037;51.068;13.780;2022-08-01T11:53:06;6.77;;;1.37;;
6017;SDS011;3037;51.068;13.780;2022-08-01T11:55:33;5.60;;;1.20;;
6017;SDS011;3037;51.068;13.780;2022-08-01T11:58:03;7.70;;;3.87;;
6017;SDS011;3037;51.068;13.780;2022-08-01T12:00:30;4.70;;;2.10;;
6017;SDS011;3037;51.068;13.780;2022-08-01T12:03:01;2.83;;;1.30;;
6017;SDS011;3037;51.068;13.780;2022-08-01T12:05:28;2.70;;;1.03;;
6017;SDS011;3037;51.068;13.780;2022-08-01T12:07:54;8.77;;;1.20;;
6017;SDS011;3037;51.068;13.780;2022-08-01T12:10:21;1.20;;;1.20;;
6017;SDS011;3037;51.068;13.780;2022-08-01T12:12:50;5.43;;;1.10;;
6017;SDS011;3037;51.068;13.780;2022-08-01T12:15:18;3.10;;;1.90;;
6017;SDS011;3037;51.068;13.780;2022-08-01T12:17:46;5.87;;;1.70;;
6017;SDS011;3037;51.068;13.780;2022-08-01T12:20:14;1.57;;;1.10;;
6017;SDS011;3037;51.068;13.780;2022-08-01T12:22:43;1.53;;;1.43;;
6017;SDS011;3037;51.068;13.780;2022-08-01T12:25:13;2.57;;;1.03;;
6017;SDS011;3037;51.068;13.780;2022-08-01T12:27:41;1.60;;;1.50;;
6017;SDS011;3037;51.068;13.780;2022-08-01T12:30:12;1.23;;;1.10;;
6017;SDS011;3037;51.068;13.780;2022-08-01T12:32:40;5.40;;;1.47;;
6017;SDS011;3037;51.068;13.780;2022-08-01T12:35:08;3.03;;;1.70;;
6017;SDS011;3037;51.068;13.780;2022-08-01T12:37:42;3.03;;;1.00;;
6017;SDS011;3037;51.068;13.780;2022-08-01T12:40:10;1.63;;;1.20;;
6017;SDS011;3037;51.068;13.780;2022-08-01T12:42:45;1.67;;;1.60;;
6017;SDS011;3037;51.068;13.780;2022-08-01T12:45:13;3.33;;;1.13;;
6017;SDS011;3037;51.068;13.780;2022-08-01T12:47:41;1.20;;;1.20;;
6017;SDS011;3037;51.068;13.780;2022-08-01T12:50:08;1.30;;;1.13;;
6017;SDS011;3037;51.068;13.780;2022-08-01T12:52:37;1.10;;;1.10;;
6017;SDS011;3037;51.068;13.780;2022-08-01T12:55:07;2.53;;;0.90;;
6017;SDS011;3037;51.068;13.780;2022-08-01T12:57:39;2.93;;;0.97;;
6017;SDS011;3037;51.068;13.780;2022-08-01T13:00:11;5.80;;;2.17;;
6017;SDS011;3037;51.068;13.780;2022-08-01T13:02:39;3.67;;;1.37;;
6017;SDS011;3037;51.068;13.780;2022-08-01T13:05:05;2.30;;;1.17;;
6017;SDS011;3037;51.068;13.780;2022-08-01T13:07:38;4.10;;;1.30;;
6017;SDS011;3037;51.068;13.780;2022-08-01T13:10:08;3.87;;;1.00;;
6017;SDS011;3037;51.068;13.780;2022-08-01T13:12:34;1.37;;;1.00;;
6017;SDS011;3037;51.068;13.780;2022-08-01T13:15:15;2.13;;;1.20;;
6017;SDS011;3037;51.068;13.780;2022-08-01T13:17:41;2.47;;;1.10;;
6017;SDS011;3037;51.068;13.780;2022-08-01T13:20:07;0.90;;;0.90;;
6017;SDS011;3037;51.068;13.780;2022-08-01T13:22:37;7.70;;;2.23;;
6017;SDS011;3037;51.068;13.780;2022-08-01T13:25:09;26.00;;;2.33;;
6017;SDS011;3037;51.068;13.780;2022-08-01T13:27:38;6.83;;;1.43;;
6017;SDS011;3037;51.068;13.780;2022-08-01T13:30:14;7.00;;;1.43;;
6017;SDS011;3037;51.068;13.780;2022-08-01T13:32:44;1.30;;;1.20;;
6017;SDS011;3037;51.068;13.780;2022-08-01T13:35:25;5.50;;;1.70;;
6017;SDS011;3037;51.068;13.780;2022-08-01T13:37:51;8.03;;;0.90;;
6017;SDS011;3037;51.068;13.780;2022-08-01T13:40:24;12.27;;;1.30;;
6017;SDS011;3037;51.068;13.780;2022-08-01T13:42:51;7.20;;;1.03;;
6017;SDS011;3037;51.068;13.780;2022-08-01T13:45:16;8.03;;;2.03;;
6017;SDS011;3037;51.068;13.780;2022-08-01T13:47:42;1.17;;;1.17;;
6017;SDS011;3037;51.068;13.780;2022-08-01T13:50:08;3.13;;;1.30;;
6017;SDS011;3037;51.068;13.780;2022-08-01T13:52:34;11.03;;;1.50;;
6017;SDS011;3037;51.068;13.780;2022-08-01T13:54:59;9.97;;;2.47;;
6017;SDS011;3037;51.068;13.780;2022-08-01T13:57:26;10.70;;;2.40;;
6017;SDS011;3037;51.068;13.780;2022-08-01T13:59:52;4.13;;;2.00;;
6017;SDS011;3037;51.068;13.780;2022-08-01T14:02:17;6.97;;;1.80;;
6017;SDS011;3037;51.068;13.780;2022-08-01T14:04:43;16.70;;;2.00;;
6017;SDS011;3037;51.068;13.780;2022-08-01T14:07:08;12.67;;;1.60;;
6017;SDS011;3037;51.068;13.780;2022-08-01T14:09:34;6.63;;;2.67;;
6017;SDS011;3037;51.068;13.780;2022-08-01T14:11:59;3.47;;;1.50;;
6017;SDS011;3037;51.068;13.780;2022-08-01T14:14:25;1.50;;;1.20;;
6017;SDS011;3037;51.068;13.780;2022-08-01T14:16:50;12.30;;;1.23;;
6017;SDS011;3037;51.068;13.780;2022-08-01T14:19:16;1.33;;;0.80;;
6017;SDS011;3037;51.068;13.780;2022-08-01T14:21:42;1.73;;;1.00;;
6017;SDS011;3037;51.068;13.780;2022-08-01T14:24:08;4.30;;;1.27;;
6017;SDS011;3037;51.068;13.780;2022-08-01T14:26:34;1.20;;;1.10;;
6017;SDS011;3037;51.068;13.780;2022-08-01T14:29:00;3.33;;;1.40;;
6017;SDS011;3037;51.068;13.780;2022-08-01T14:31:26;1.30;;;1.20;;
6017;SDS011;3037;51.068;13.780;2022-08-01T14:33:51;1.10;;;1.10;;
6017;SDS011;3037;51.068;13.780;2022-08-01T14:36:17;3.87;;;1.23;;
6017;SDS011;3037;51.068;13.780;2022-08-01T14:38:42;2.97;;;1.10;;
6017;SDS011;3037;51.068;13.780;2022-08-01T14:41:08;3.10;;;1.10;;
6017;SDS011;3037;51.068;13.780;2022-08-01T14:43:33;1.43;;;1.20;;
6017;SDS011;3037;51.068;13.780;2022-08-01T14:46:02;2.40;;;1.40;;
6017;SDS011;3037;51.068;13.780;2022-08-01T14:48:28;2.43;;;1.63;;
6017;SDS011;3037;51.068;13.780;2022-08-01T14:50:54;1.90;;;1.50;;
6017;SDS011;3037;51.068;13.780;2022-08-01T14:53:19;1.37;;;1.27;;
6017;SDS011;3037;51.068;13.780;2022-08-01T14:55:45;2.60;;;1.40;;
6017;SDS011;3037;51.068;13.780;2022-08-01T14:58:11;4.23;;;1.60;;
6017;SDS011;3037;51.068;13.780;2022-08-01T15:00:36;6.80;;;2.20;;
6017;SDS011;3037;51.068;13.780;2022-08-01T15:03:02;2.93;;;1.20;;
6017;SDS011;3037;51.068;13.780;2022-08-01T15:05:28;3.97;;;1.20;;
6017;SDS011;3037;51.068;13.780;2022-08-01T15:07:55;1.20;;;1.10;;
6017;SDS011;3037;51.068;13.780;2022-08-01T15:10:20;0.93;;;0.93;;
6017;SDS011;3037;51.068;13.780;2022-08-01T15:12:47;1.60;;;1.00;;
6017;SDS011;3037;51.068;13.780;2022-08-01T15:15:13;1.03;;;1.03;;
6017;SDS011;3037;51.068;13.780;2022-08-01T15:17:38;1.03;;;1.03;;
6017;SDS011;3037;51.068;13.780;2022-08-01T15:20:04;3.10;;;1.20;;
6017;SDS011;3037;51.068;13.780;2022-08-01T15:22:32;2.03;;;1.03;;
6017;SDS011;3037;51.068;13.780;2022-08-01T15:24:58;2.63;;;1.20;;
6017;SDS011;3037;51.068;13.780;2022-08-01T15:27:26;1.20;;;1.20;;
6017;SDS011;3037;51.068;13.780;2022-08-01T15:29:53;1.00;;;1.00;;
6017;SDS011;3037;51.068;13.780;2022-08-01T15:32:19;1.40;;;1.30;;
6017;SDS011;3037;51.068;13.780;2022-08-01T15:34:45;1.47;;;1.37;;
6017;SDS011;3037;51.068;13.780;2022-08-01T15:37:11;1.23;;;1.23;;
6017;SDS011;3037;51.068;13.780;2022-08-01T15:39:37;1.60;;;1.10;;